sensor_id;sensor_type;location;lat;lon;timestamp;pressure;altitude;pressure_sealevel;temperature;humidity
74637;BME280;63141;54.616;39.754;2023-03-05T06:49:06;97499.22;;;23.11;29.04
74637;BME280;63141;54.616;39.754;2023-03-05T06:52:09;97499.22;;;23.11;29.17
74637;BME280;63141;54.616;39.754;2023-03-05T06:55:12;97501.88;;;23.11;29.18
74637;BME280;63141;54.616;39.754;2023-03-05T06:58:14;97493.06;;;23.10;29.15
74637;BME280;63141;54.616;39.754;2023-03-05T07:01:19;97498.38;;;23.10;29.05
74637;BME280;63141;54.616;39.754;2023-03-05T07:04:20;97505.50;;;23.10;29.08
74637;BME280;63141;54.616;39.754;2023-03-05T07:07:24;97506.34;;;23.10;29.00
74637;BME280;63141;54.616;39.754;2023-03-05T07:10:26;97511.53;;;23.12;28.95
74637;BME280;63141;54.616;39.754;2023-03-05T07:13:27;97509.00;;;23.10;28.99
74637;BME280;63141;54.616;39.754;2023-03-05T07:16:31;97514.31;;;23.10;28.69
74637;BME280;63141;54.616;39.754;2023-03-05T07:19:33;97513.34;;;23.11;29.00
74637;BME280;63141;54.616;39.754;2023-03-05T07:22:36;97519.50;;;23.12;28.92
74637;BME280;63141;54.616;39.754;2023-03-05T07:25:38;97516.84;;;23.12;28.93
74637;BME280;63141;54.616;39.754;2023-03-05T07:28:40;97522.16;;;23.12;28.93
74637;BME280;63141;54.616;39.754;2023-03-05T07:31:41;97531.78;;;23.13;28.96
74637;BME280;63141;54.616;39.754;2023-03-05T07:34:43;97532.78;;;23.12;28.90
74637;BME280;63141;54.616;39.754;2023-03-05T07:37:44;97526.47;;;23.13;28.82
74637;BME280;63141;54.616;39.754;2023-03-05T07:40:45;97515.84;;;23.13;28.98
74637;BME280;63141;54.616;39.754;2023-03-05T07:43:49;97530.69;;;23.15;28.95
74637;BME280;63141;54.616;39.754;2023-03-05T07:46:51;97534.19;;;23.16;28.93
74637;BME280;63141;54.616;39.754;2023-03-05T07:49:52;97534.03;;;23.17;28.82
74637;BME280;63141;54.616;39.754;2023-03-05T07:52:53;97537.53;;;23.18;28.95
74637;BME280;63141;54.616;39.754;2023-03-05T07:55:55;97551.53;;;23.20;28.91
74637;BME280;63141;54.616;39.754;2023-03-05T07:59:01;97546.94;;;23.22;28.81
74637;BME280;63141;54.616;39.754;2023-03-05T08:02:02;97556.59;;;23.23;28.80
74637;BME280;63141;54.616;39.754;2023-03-05T08:05:09;97562.47;;;23.27;28.47
74637;BME280;63141;54.616;39.754;2023-03-05T08:08:10;97558.84;;;23.28;28.50
74637;BME280;63141;54.616;39.754;2023-03-05T08:11:13;97564.88;;;23.30;28.53
74637;BME280;63141;54.616;39.754;2023-03-05T08:14:15;97557.75;;;23.30;28.56
74637;BME280;63141;54.616;39.754;2023-03-05T08:17:17;97564.72;;;23.31;28.56
74637;BME280;63141;54.616;39.754;2023-03-05T08:20:18;97575.13;;;23.34;28.64
74637;BME280;63141;54.616;39.754;2023-03-05T08:23:20;97575.78;;;23.36;28.63
74637;BME280;63141;54.616;39.754;2023-03-05T08:26:23;97572.19;;;23.37;28.69
74637;BME280;63141;54.616;39.754;2023-03-05T08:29:25;97583.53;;;23.39;28.82
74637;BME280;63141;54.616;39.754;2023-03-05T08:32:27;97581.81;;;23.38;29.09
74637;BME280;63141;54.616;39.754;2023-03-05T08:35:28;97581.81;;;23.38;29.41
74637;BME280;63141;54.616;39.754;2023-03-05T08:38:29;97583.53;;;23.39;29.15
74637;BME280;63141;54.616;39.754;2023-03-05T08:41:31;97592.44;;;23.38;28.86
74637;BME280;63141;54.616;39.754;2023-03-05T08:44:32;97592.44;;;23.38;29.14
74637;BME280;63141;54.616;39.754;2023-03-05T08:47:34;97585.34;;;23.39;29.28
74637;BME280;63141;54.616;39.754;2023-03-05T08:50:35;97591.50;;;23.39;29.18
74637;BME280;63141;54.616;39.754;2023-03-05T08:53:38;97600.19;;;23.41;29.12
74637;BME280;63141;54.616;39.754;2023-03-05T08:56:39;97601.13;;;23.40;29.15
74637;BME280;63141;54.616;39.754;2023-03-05T08:59:40;97602.00;;;23.41;28.87
74637;BME280;63141;54.616;39.754;2023-03-05T09:02:42;97612.22;;;23.46;29.26
74637;BME280;63141;54.616;39.754;2023-03-05T09:05:48;97602.03;;;23.51;29.71
74637;BME280;63141;54.616;39.754;2023-03-05T09:08:50;97605.25;;;23.54;29.63
74637;BME280;63141;54.616;39.754;2023-03-05T09:11:51;97604.88;;;23.59;29.83
74637;BME280;63141;54.616;39.754;2023-03-05T09:14:54;97612.44;;;23.63;29.69
74637;BME280;63141;54.616;39.754;2023-03-05T09:17:55;97620.03;;;23.68;30.24
74637;BME280;63141;54.616;39.754;2023-03-05T09:20:56;97611.66;;;23.73;30.26
74637;BME280;63141;54.616;39.754;2023-03-05T09:23:58;97624.56;;;23.77;30.20
74637;BME280;63141;54.616;39.754;2023-03-05T09:27:00;97621.53;;;23.82;29.71
74637;BME280;63141;54.616;39.754;2023-03-05T09:30:02;97626.44;;;23.87;29.81
74637;BME280;63141;54.616;39.754;2023-03-05T09:33:04;97622.53;;;23.91;30.22
74637;BME280;63141;54.616;39.754;2023-03-05T09:36:17;97630.28;;;23.94;29.71
74637;BME280;63141;54.616;39.754;2023-03-05T09:39:19;97626.50;;;23.96;29.63
74637;BME280;63141;54.616;39.754;2023-03-05T09:49:19;97638.13;;;24.05;28.72
74637;BME280;63141;54.616;39.754;2023-03-05T09:52:53;97629.19;;;24.06;28.72
74637;BME280;63141;54.616;39.754;2023-03-05T09:55:57;97637.88;;;24.08;29.00
74637;BME280;63141;54.616;39.754;2023-03-05T10:02:31;97638.31;;;24.13;28.53
74637;BME280;63141;54.616;39.754;2023-03-05T10:05:49;97640.69;;;24.16;28.16
74637;BME280;63141;54.616;39.754;2023-03-05T10:12:14;97648.13;;;24.22;27.79
74637;BME280;63141;54.616;39.754;2023-03-05T10:15:36;97651.63;;;24.23;27.41
74637;BME280;63141;54.616;39.754;2023-03-05T10:19:01;97657.81;;;24.23;27.48
74637;BME280;63141;54.616;39.754;2023-03-05T10:22:18;97657.09;;;24.21;27.53
74637;BME280;63141;54.616;39.754;2023-03-05T10:32:36;97663.69;;;24.27;27.30
74637;BME280;63141;54.616;39.754;2023-03-05T10:36:16;97667.47;;;24.24;26.59
74637;BME280;63141;54.616;39.754;2023-03-05T10:46:16;97669.84;;;24.28;26.48
74637;BME280;63141;54.616;39.754;2023-03-05T10:49:19;97674.34;;;24.37;26.43
74637;BME280;63141;54.616;39.754;2023-03-05T10:52:38;97682.50;;;24.45;26.58
74637;BME280;63141;54.616;39.754;2023-03-05T10:55:40;97681.81;;;24.43;26.52
74637;BME280;63141;54.616;39.754;2023-03-05T10:58:42;97681.09;;;24.41;27.02
74637;BME280;63141;54.616;39.754;2023-03-05T11:02:01;97682.78;;;24.42;26.69
74637;BME280;63141;54.616;39.754;2023-03-05T11:05:02;97684.94;;;24.48;26.98
74637;BME280;63141;54.616;39.754;2023-03-05T11:08:32;97693.78;;;24.58;26.78
74637;BME280;63141;54.616;39.754;2023-03-05T11:11:34;97690.84;;;24.61;26.94
74637;BME280;63141;54.616;39.754;2023-03-05T11:14:38;97694.34;;;24.62;27.25
74637;BME280;63141;54.616;39.754;2023-03-05T11:20:44;97696.00;;;24.53;27.35
74637;BME280;63141;54.616;39.754;2023-03-05T11:27:25;97692.06;;;24.48;27.57
74637;BME280;63141;54.616;39.754;2023-03-05T11:30:33;97701.88;;;24.47;27.72
74637;BME280;63141;54.616;39.754;2023-03-05T11:33:36;97706.22;;;24.48;27.56
74637;BME280;63141;54.616;39.754;2023-03-05T11:36:39;97700.78;;;24.50;27.72
74637;BME280;63141;54.616;39.754;2023-03-05T11:39:42;97711.41;;;24.50;28.02
74637;BME280;63141;54.616;39.754;2023-03-05T11:42:43;97718.41;;;24.51;28.35
74637;BME280;63141;54.616;39.754;2023-03-05T11:45:46;97721.22;;;24.49;28.29
74637;BME280;63141;54.616;39.754;2023-03-05T11:48:49;97717.84;;;24.47;28.27
74637;BME280;63141;54.616;39.754;2023-03-05T11:52:07;97729.41;;;24.46;28.34
74637;BME280;63141;54.616;39.754;2023-03-05T11:55:24;97717.56;;;24.50;28.27
74637;BME280;63141;54.616;39.754;2023-03-05T11:58:39;97726.53;;;24.49;28.30
74637;BME280;63141;54.616;39.754;2023-03-05T12:01:47;97731.16;;;24.47;29.13
74637;BME280;63141;54.616;39.754;2023-03-05T12:04:54;97740.81;;;24.48;28.56
74637;BME280;63141;54.616;39.754;2023-03-05T12:07:59;97739.97;;;24.48;28.76
74637;BME280;63141;54.616;39.754;2023-03-05T12:11:22;97745.28;;;24.48;28.89
74637;BME280;63141;54.616;39.754;2023-03-05T12:14:40;97747.81;;;24.49;28.58
74637;BME280;63141;54.616;39.754;2023-03-05T12:21:38;97761.13;;;24.49;28.85
74637;BME280;63141;54.616;39.754;2023-03-05T12:24:41;97758.47;;;24.49;28.59
74637;BME280;63141;54.616;39.754;2023-03-05T12:27:42;97757.59;;;24.49;28.98
74637;BME280;63141;54.616;39.754;2023-03-05T12:33:45;97764.75;;;24.48;28.93
74637;BME280;63141;54.616;39.754;2023-03-05T12:36:46;97757.59;;;24.49;29.05
74637;BME280;63141;54.616;39.754;2023-03-05T12:43:31;97772.50;;;24.51;28.62
74637;BME280;63141;54.616;39.754;2023-03-05T12:46:35;97769.13;;;24.49;29.27
74637;BME280;63141;54.616;39.754;2023-03-05T12:49:43;97771.63;;;24.51;28.72
74637;BME280;63141;54.616;39.754;2023-03-05T12:52:45;97775.97;;;24.52;29.16
74637;BME280;63141;54.616;39.754;2023-03-05T12:58:52;97783.97;;;24.52;28.72
74637;BME280;63141;54.616;39.754;2023-03-05T13:01:59;97780.47;;;24.51;28.92
74637;BME280;63141;54.616;39.754;2023-03-05T13:05:22;97787.59;;;24.51;28.88
74637;BME280;63141;54.616;39.754;2023-03-05T13:08:33;97791.13;;;24.51;28.65
74637;BME280;63141;54.616;39.754;2023-03-05T13:11:38;97785.19;;;24.48;28.83
74637;BME280;63141;54.616;39.754;2023-03-05T13:14:40;97790.63;;;24.46;28.95
74637;BME280;63141;54.616;39.754;2023-03-05T13:17:59;97806.50;;;24.48;28.66
74637;BME280;63141;54.616;39.754;2023-03-05T13:21:05;97803.81;;;24.48;28.85
74637;BME280;63141;54.616;39.754;2023-03-05T13:24:18;97811.69;;;24.49;29.63
74637;BME280;63141;54.616;39.754;2023-03-05T13:27:31;97812.41;;;24.51;29.59
74637;BME280;63141;54.616;39.754;2023-03-05T13:30:32;97823.16;;;24.50;29.45
74637;BME280;63141;54.616;39.754;2023-03-05T13:33:35;97821.47;;;24.49;28.86
74637;BME280;63141;54.616;39.754;2023-03-05T13:36:36;97825.94;;;24.48;28.87
74637;BME280;63141;54.616;39.754;2023-03-05T13:39:54;97825.00;;;24.49;29.08
74637;BME280;63141;54.616;39.754;2023-03-05T13:43:16;97831.16;;;24.50;29.14
74637;BME280;63141;54.616;39.754;2023-03-05T13:46:37;97843.63;;;24.49;29.08
74637;BME280;63141;54.616;39.754;2023-03-05T13:49:39;97836.59;;;24.48;28.69
74637;BME280;63141;54.616;39.754;2023-03-05T13:52:40;97837.31;;;24.50;28.73
74637;BME280;63141;54.616;39.754;2023-03-05T13:55:42;97843.63;;;24.49;28.87
74637;BME280;63141;54.616;39.754;2023-03-05T13:58:46;97845.28;;;24.50;29.04
74637;BME280;63141;54.616;39.754;2023-03-05T14:01:49;97840.09;;;24.49;28.73
74637;BME280;63141;54.616;39.754;2023-03-05T14:04:57;97852.56;;;24.48;28.89
74637;BME280;63141;54.616;39.754;2023-03-05T14:07:58;97860.41;;;24.50;28.88
74637;BME280;63141;54.616;39.754;2023-03-05T14:11:11;97857.88;;;24.48;28.85
74637;BME280;63141;54.616;39.754;2023-03-05T14:14:17;97864.19;;;24.47;28.67
74637;BME280;63141;54.616;39.754;2023-03-05T14:17:37;97879.16;;;24.48;28.69
74637;BME280;63141;54.616;39.754;2023-03-05T14:20:40;97879.28;;;24.46;29.00
74637;BME280;63141;54.616;39.754;2023-03-05T14:24:10;97884.72;;;24.45;28.92
74637;BME280;63141;54.616;39.754;2023-03-05T14:27:16;97880.16;;;24.47;29.10
74637;BME280;63141;54.616;39.754;2023-03-05T14:30:23;97895.13;;;24.48;28.80
74637;BME280;63141;54.616;39.754;2023-03-05T14:33:31;97894.19;;;24.49;28.80
74637;BME280;63141;54.616;39.754;2023-03-05T14:36:33;97904.94;;;24.48;28.93
74637;BME280;63141;54.616;39.754;2023-03-05T14:39:44;97912.81;;;24.49;28.69
74637;BME280;63141;54.616;39.754;2023-03-05T14:42:51;97915.31;;;24.51;28.60
74637;BME280;63141;54.616;39.754;2023-03-05T14:45:53;97919.78;;;24.50;28.81
74637;BME280;63141;54.616;39.754;2023-03-05T14:48:55;97925.13;;;24.50;28.55
74637;BME280;63141;54.616;39.754;2023-03-05T14:51:56;97927.66;;;24.52;28.98
74637;BME280;63141;54.616;39.754;2023-03-05T14:54:58;97935.50;;;24.53;28.52
74637;BME280;63141;54.616;39.754;2023-03-05T14:58:09;97947.97;;;24.53;28.80
74637;BME280;63141;54.616;39.754;2023-03-05T15:01:14;97954.00;;;24.55;28.90
74637;BME280;63141;54.616;39.754;2023-03-05T15:04:15;97952.44;;;24.52;28.40
74637;BME280;63141;54.616;39.754;2023-03-05T15:07:30;97965.16;;;24.49;28.53
74637;BME280;63141;54.616;39.754;2023-03-05T15:10:32;97970.13;;;24.42;28.23
74637;BME280;63141;54.616;39.754;2023-03-05T15:13:33;97974.88;;;24.38;28.30
74637;BME280;63141;54.616;39.754;2023-03-05T15:16:38;97982.97;;;24.37;28.31
74637;BME280;63141;54.616;39.754;2023-03-05T15:19:41;97989.66;;;24.31;28.28
74637;BME280;63141;54.616;39.754;2023-03-05T15:22:43;97983.72;;;24.28;28.41
74637;BME280;63141;54.616;39.754;2023-03-05T15:25:44;97990.97;;;24.25;28.76
74637;BME280;63141;54.616;39.754;2023-03-05T15:28:46;97986.25;;;24.29;28.59
74637;BME280;63141;54.616;39.754;2023-03-05T15:31:51;98003.66;;;24.33;28.59
74637;BME280;63141;54.616;39.754;2023-03-05T15:34:53;98001.59;;;24.37;28.83
74637;BME280;63141;54.616;39.754;2023-03-05T15:37:55;98004.13;;;24.38;28.90
74637;BME280;63141;54.616;39.754;2023-03-05T15:40:58;98019.81;;;24.41;29.34
74637;BME280;63141;54.616;39.754;2023-03-05T15:43:59;98007.41;;;24.42;28.70
74637;BME280;63141;54.616;39.754;2023-03-05T15:47:01;98021.38;;;24.44;28.75
74637;BME280;63141;54.616;39.754;2023-03-05T15:50:02;98030.09;;;24.46;29.06
74637;BME280;63141;54.616;39.754;2023-03-05T15:53:04;98028.41;;;24.45;29.14
74637;BME280;63141;54.616;39.754;2023-03-05T15:56:05;98046.06;;;24.46;28.97
74637;BME280;63141;54.616;39.754;2023-03-05T15:59:07;98040.72;;;24.46;29.09
74637;BME280;63141;54.616;39.754;2023-03-05T16:02:13;98045.13;;;24.47;29.18
74637;BME280;63141;54.616;39.754;2023-03-05T16:05:20;98048.88;;;24.44;29.02
74637;BME280;63141;54.616;39.754;2023-03-05T16:08:21;98058.63;;;24.44;29.83
74637;BME280;63141;54.616;39.754;2023-03-05T16:11:24;98062.53;;;24.40;29.97
74637;BME280;63141;54.616;39.754;2023-03-05T16:14:28;98075.84;;;24.40;29.56
74637;BME280;63141;54.616;39.754;2023-03-05T16:17:30;98078.50;;;24.40;29.30
74637;BME280;63141;54.616;39.754;2023-03-05T16:20:31;98093.50;;;24.41;29.75
74637;BME280;63141;54.616;39.754;2023-03-05T16:23:33;98095.88;;;24.44;29.14
74637;BME280;63141;54.616;39.754;2023-03-05T16:26:36;98104.84;;;24.43;29.63
74637;BME280;63141;54.616;39.754;2023-03-05T16:29:37;98117.16;;;24.44;29.61
74637;BME280;63141;54.616;39.754;2023-03-05T16:32:38;98109.19;;;24.44;29.98
74637;BME280;63141;54.616;39.754;2023-03-05T16:35:40;98117.16;;;24.44;29.38
74637;BME280;63141;54.616;39.754;2023-03-05T16:38:41;98113.56;;;24.45;29.40
74637;BME280;63141;54.616;39.754;2023-03-05T16:41:43;98121.44;;;24.46;29.33
74637;BME280;63141;54.616;39.754;2023-03-05T16:44:44;98120.56;;;24.46;29.65
74637;BME280;63141;54.616;39.754;2023-03-05T16:47:47;98134.00;;;24.44;29.23
74637;BME280;63141;54.616;39.754;2023-03-05T16:50:48;98137.16;;;24.50;29.41
74637;BME280;63141;54.616;39.754;2023-03-05T16:53:50;98136.78;;;24.54;29.15
74637;BME280;63141;54.616;39.754;2023-03-05T16:56:51;98136.53;;;24.57;29.61
74637;BME280;63141;54.616;39.754;2023-03-05T16:59:54;98138.09;;;24.60;29.24
74637;BME280;63141;54.616;39.754;2023-03-05T17:02:56;98144.50;;;24.57;29.70
74637;BME280;63141;54.616;39.754;2023-03-05T17:06:12;98144.88;;;24.64;29.47
74637;BME280;63141;54.616;39.754;2023-03-05T17:09:14;98155.03;;;24.70;29.25
74637;BME280;63141;54.616;39.754;2023-03-05T17:12:16;98164.31;;;24.76;29.21
74637;BME280;63141;54.616;39.754;2023-03-05T17:15:17;98172.78;;;24.81;29.36
74637;BME280;63141;54.616;39.754;2023-03-05T17:18:18;98169.97;;;24.82;29.25
74637;BME280;63141;54.616;39.754;2023-03-05T17:21:20;98167.19;;;24.84;29.15
74637;BME280;63141;54.616;39.754;2023-03-05T17:24:22;98171.31;;;24.88;29.21
74637;BME280;63141;54.616;39.754;2023-03-05T17:27:23;98184.34;;;24.91;28.94
74637;BME280;63141;54.616;39.754;2023-03-05T17:30:24;98185.06;;;24.93;29.03
74637;BME280;63141;54.616;39.754;2023-03-05T17:33:27;98180.47;;;24.95;28.79
74637;BME280;63141;54.616;39.754;2023-03-05T17:36:29;98193.63;;;24.97;29.18
74637;BME280;63141;54.616;39.754;2023-03-05T17:39:32;98196.19;;;24.98;28.94
74637;BME280;63141;54.616;39.754;2023-03-05T17:42:34;98199.44;;;25.02;29.05
74637;BME280;63141;54.616;39.754;2023-03-05T17:45:35;98193.88;;;25.05;28.98
74637;BME280;63141;54.616;39.754;2023-03-05T17:48:37;98196.41;;;25.06;29.25
74637;BME280;63141;54.616;39.754;2023-03-05T17:51:39;98209.00;;;25.04;29.38
74637;BME280;63141;54.616;39.754;2023-03-05T17:54:40;98203.41;;;25.07;29.20
74637;BME280;63141;54.616;39.754;2023-03-05T17:57:43;98211.41;;;25.07;29.77
74637;BME280;63141;54.616;39.754;2023-03-05T18:00:47;98217.72;;;25.06;29.77
74637;BME280;63141;54.616;39.754;2023-03-05T18:03:49;98215.06;;;25.06;29.44
74637;BME280;63141;54.616;39.754;2023-03-05T18:06:53;98222.31;;;25.04;29.66
74637;BME280;63141;54.616;39.754;2023-03-05T18:09:54;98226.66;;;25.05;29.64
74637;BME280;63141;54.616;39.754;2023-03-05T18:12:55;98227.38;;;25.07;29.96
74637;BME280;63141;54.616;39.754;2023-03-05T18:16:00;98233.44;;;25.09;30.14
74637;BME280;63141;54.616;39.754;2023-03-05T18:19:02;98242.41;;;25.08;30.09
74637;BME280;63141;54.616;39.754;2023-03-05T18:22:03;98245.91;;;25.09;29.99
74637;BME280;63141;54.616;39.754;2023-03-05T18:25:05;98251.34;;;25.07;30.46
74637;BME280;63141;54.616;39.754;2023-03-05T18:28:12;98263.00;;;25.06;30.03
74637;BME280;63141;54.616;39.754;2023-03-05T18:31:14;98262.16;;;25.06;29.95
74637;BME280;63141;54.616;39.754;2023-03-05T18:34:15;98264.69;;;25.07;30.09
74637;BME280;63141;54.616;39.754;2023-03-05T18:37:18;98268.31;;;25.06;30.00
74637;BME280;63141;54.616;39.754;2023-03-05T18:40:21;98271.84;;;25.07;30.10
74637;BME280;63141;54.616;39.754;2023-03-05T18:43:23;98273.78;;;25.05;29.88
74637;BME280;63141;54.616;39.754;2023-03-05T18:46:24;98279.34;;;25.02;30.37
74637;BME280;63141;54.616;39.754;2023-03-05T18:49:26;98283.13;;;24.99;29.77
74637;BME280;63141;54.616;39.754;2023-03-05T18:52:28;98280.44;;;24.99;30.16
74637;BME280;63141;54.616;39.754;2023-03-05T18:55:30;98292.31;;;24.95;29.87
74637;BME280;63141;54.616;39.754;2023-03-05T18:58:31;98296.81;;;24.95;30.15
74637;BME280;63141;54.616;39.754;2023-03-05T19:01:35;98288.94;;;24.93;29.80
74637;BME280;63141;54.616;39.754;2023-03-05T19:04:37;98293.06;;;24.86;29.91
74637;BME280;63141;54.616;39.754;2023-03-05T19:07:40;98299.72;;;24.80;30.14
74637;BME280;63141;54.616;39.754;2023-03-05T19:10:42;98302.88;;;24.74;30.02
74637;BME280;63141;54.616;39.754;2023-03-05T19:13:45;98296.22;;;24.69;29.90
74637;BME280;63141;54.616;39.754;2023-03-05T19:16:50;98305.41;;;24.64;29.91
74637;BME280;63141;54.616;39.754;2023-03-05T19:19:52;98302.28;;;24.59;29.66
74637;BME280;63141;54.616;39.754;2023-03-05T19:22:54;98309.78;;;24.54;29.44
74637;BME280;63141;54.616;39.754;2023-03-05T19:25:55;98316.41;;;24.49;29.42
74637;BME280;63141;54.616;39.754;2023-03-05T19:28:57;98316.88;;;24.42;29.42
74637;BME280;63141;54.616;39.754;2023-03-05T19:31:59;98309.25;;;24.38;29.45
74637;BME280;63141;54.616;39.754;2023-03-05T19:35:01;98315.88;;;24.32;29.49
74637;BME280;63141;54.616;39.754;2023-03-05T19:38:02;98316.97;;;24.30;29.35
74637;BME280;63141;54.616;39.754;2023-03-05T19:41:04;98317.22;;;24.27;29.33
74637;BME280;63141;54.616;39.754;2023-03-05T19:44:06;98316.75;;;24.21;29.16
74637;BME280;63141;54.616;39.754;2023-03-05T19:47:07;98313.47;;;24.18;29.37
74637;BME280;63141;54.616;39.754;2023-03-05T19:50:12;98318.16;;;24.14;29.08
74637;BME280;63141;54.616;39.754;2023-03-05T19:53:14;98315.84;;;24.10;29.55
74637;BME280;63141;54.616;39.754;2023-03-05T19:56:16;98322.25;;;24.07;29.15
74637;BME280;63141;54.616;39.754;2023-03-05T19:59:18;98323.34;;;24.04;29.30
74637;BME280;63141;54.616;39.754;2023-03-05T20:02:23;98328.06;;;24.01;29.23
74637;BME280;63141;54.616;39.754;2023-03-05T20:05:25;98333.59;;;23.98;29.18
74637;BME280;63141;54.616;39.754;2023-03-05T20:08:29;98329.38;;;23.95;29.21
74637;BME280;63141;54.616;39.754;2023-03-05T20:11:30;98334.09;;;23.92;29.35
74637;BME280;63141;54.616;39.754;2023-03-05T20:14:32;98333.34;;;23.90;29.29
74637;BME280;63141;54.616;39.754;2023-03-05T20:17:34;98337.09;;;23.87;29.34
74637;BME280;63141;54.616;39.754;2023-03-05T20:20:35;98338.19;;;23.85;29.21
74637;BME280;63141;54.616;39.754;2023-03-05T20:23:37;98335.72;;;23.81;29.44
74637;BME280;63141;54.616;39.754;2023-03-05T20:26:40;98344.69;;;23.80;29.29
74637;BME280;63141;54.616;39.754;2023-03-05T20:29:42;98350.09;;;23.79;29.44
74637;BME280;63141;54.616;39.754;2023-03-05T20:32:44;98345.88;;;23.76;29.19
74637;BME280;63141;54.616;39.754;2023-03-05T20:35:45;98352.13;;;23.75;29.37
74637;BME280;63141;54.616;39.754;2023-03-05T20:38:46;98352.22;;;23.74;29.10
74637;BME280;63141;54.616;39.754;2023-03-05T20:41:48;98346.06;;;23.73;29.19
74637;BME280;63141;54.616;39.754;2023-03-05T20:44:51;98347.84;;;23.73;29.07
74637;BME280;63141;54.616;39.754;2023-03-05T20:47:52;98360.31;;;23.72;29.16
74637;BME280;63141;54.616;39.754;2023-03-05T20:50:54;98353.31;;;23.71;29.20
74637;BME280;63141;54.616;39.754;2023-03-05T20:53:59;98358.72;;;23.70;29.03
74637;BME280;63141;54.616;39.754;2023-03-05T20:57:03;98355.22;;;23.69;29.07
74637;BME280;63141;54.616;39.754;2023-03-05T21:00:07;98356.19;;;23.68;29.22
74637;BME280;63141;54.616;39.754;2023-03-05T21:03:09;98352.78;;;23.66;29.30
74637;BME280;63141;54.616;39.754;2023-03-05T21:06:13;98359.06;;;23.65;29.04
74637;BME280;63141;54.616;39.754;2023-03-05T21:09:14;98362.72;;;23.64;29.24
74637;BME280;63141;54.616;39.754;2023-03-05T21:12:15;98365.47;;;23.62;29.44
74637;BME280;63141;54.616;39.754;2023-03-05T21:15:26;98355.78;;;23.61;29.10
74637;BME280;63141;54.616;39.754;2023-03-05T21:18:27;98357.59;;;23.61;29.31
74637;BME280;63141;54.616;39.754;2023-03-05T21:21:29;98355.91;;;23.60;29.26
74637;BME280;63141;54.616;39.754;2023-03-05T21:24:31;98357.72;;;23.59;29.25
74637;BME280;63141;54.616;39.754;2023-03-05T21:27:43;98358.69;;;23.58;29.28
74637;BME280;63141;54.616;39.754;2023-03-05T21:30:48;98357.84;;;23.58;29.34
74637;BME280;63141;54.616;39.754;2023-03-05T21:33:49;98360.50;;;23.58;29.11
74637;BME280;63141;54.616;39.754;2023-03-05T21:36:51;98372.06;;;23.57;29.20
74637;BME280;63141;54.616;39.754;2023-03-05T21:39:52;98365.06;;;23.56;29.34
74637;BME280;63141;54.616;39.754;2023-03-05T21:42:54;98368.72;;;23.55;29.33
74637;BME280;63141;54.616;39.754;2023-03-05T21:45:56;98366.03;;;23.55;29.13
74637;BME280;63141;54.616;39.754;2023-03-05T21:48:58;98375.81;;;23.54;29.03
74637;BME280;63141;54.616;39.754;2023-03-05T21:51:59;98372.31;;;23.54;29.48
74637;BME280;63141;54.616;39.754;2023-03-05T21:55:14;98371.56;;;23.52;29.31
74637;BME280;63141;54.616;39.754;2023-03-05T21:58:16;98373.38;;;23.51;29.30
74637;BME280;63141;54.616;39.754;2023-03-05T22:01:20;98379.53;;;23.52;29.42
74637;BME280;63141;54.616;39.754;2023-03-05T22:04:22;98372.53;;;23.51;29.50
74637;BME280;63141;54.616;39.754;2023-03-05T22:07:25;98377.13;;;23.49;29.34
74637;BME280;63141;54.616;39.754;2023-03-05T22:10:27;98379.78;;;23.49;29.45
74637;BME280;63141;54.616;39.754;2023-03-05T22:13:29;98385.09;;;23.49;29.37
74637;BME280;63141;54.616;39.754;2023-03-05T22:16:30;98385.09;;;23.49;29.23
74637;BME280;63141;54.616;39.754;2023-03-05T22:19:32;98387.00;;;23.47;29.42
74637;BME280;63141;54.616;39.754;2023-03-05T22:22:33;98394.00;;;23.48;29.45
74637;BME280;63141;54.616;39.754;2023-03-05T22:25:36;98383.50;;;23.46;29.24
74637;BME280;63141;54.616;39.754;2023-03-05T22:28:38;98390.63;;;23.46;29.31
74637;BME280;63141;54.616;39.754;2023-03-05T22:31:39;98398.59;;;23.46;29.32
74637;BME280;63141;54.616;39.754;2023-03-05T22:34:41;98396.91;;;23.45;29.25
74637;BME280;63141;54.616;39.754;2023-03-05T22:37:42;98396.06;;;23.44;29.25
74637;BME280;63141;54.616;39.754;2023-03-05T22:40:45;98394.25;;;23.45;29.38
74637;BME280;63141;54.616;39.754;2023-03-05T22:43:48;98403.19;;;23.44;29.57
74637;BME280;63141;54.616;39.754;2023-03-05T22:46:49;98399.78;;;23.41;29.37
74637;BME280;63141;54.616;39.754;2023-03-05T22:49:51;98403.28;;;23.42;29.54
74637;BME280;63141;54.616;39.754;2023-03-05T22:52:53;98398.81;;;23.42;29.36
74637;BME280;63141;54.616;39.754;2023-03-05T22:55:55;98403.38;;;23.40;29.66
74637;BME280;63141;54.616;39.754;2023-03-05T22:58:56;98402.44;;;23.41;29.37
74637;BME280;63141;54.616;39.754;2023-03-05T23:02:00;98408.69;;;23.40;29.47
74637;BME280;63141;54.616;39.754;2023-03-05T23:05:01;98402.53;;;23.40;29.29
74637;BME280;63141;54.616;39.754;2023-03-05T23:08:05;98408.69;;;23.40;29.29
74637;BME280;63141;54.616;39.754;2023-03-05T23:11:09;98401.81;;;23.38;29.25
74637;BME280;63141;54.616;39.754;2023-03-05T23:14:11;98411.47;;;23.39;29.20
74637;BME280;63141;54.616;39.754;2023-03-05T23:17:12;98409.78;;;23.38;29.32
74637;BME280;63141;54.616;39.754;2023-03-05T23:20:17;98401.81;;;23.38;29.15
74637;BME280;63141;54.616;39.754;2023-03-05T23:23:20;98405.44;;;23.37;29.32
74637;BME280;63141;54.616;39.754;2023-03-05T23:26:23;98401.91;;;23.36;29.54
74637;BME280;63141;54.616;39.754;2023-03-05T23:29:24;98401.91;;;23.36;29.32
74637;BME280;63141;54.616;39.754;2023-03-05T23:32:27;98400.22;;;23.35;29.19
74637;BME280;63141;54.616;39.754;2023-03-05T23:35:37;98395.75;;;23.36;29.22
74637;BME280;63141;54.616;39.754;2023-03-05T23:38:39;98400.22;;;23.35;29.17